Time;durP1;ratioP1;P1;durP2;ratioP2;P2;SDS_P1;SDS_P2;PMS_P1;PMS_P2;Temp;Humidity;BMP_temperature;BMP_pressure;BME280_temperature;BME280_humidity;BME280_pressure;Samples;Min_cycle;Max_cycle;Signal;HPM_P1;HPM_P2
2022/01/07 00:00:52;;;;;;;22.67;15.90;;;4.70;91.70;;;;;;5014418;28;20598;-69
2022/01/07 00:03:22;;;;;;;21.83;14.60;;;4.60;91.70;;;;;;5014352;28;20208;-69
2022/01/07 00:05:49;;;;;;;19.70;14.83;;;4.50;91.80;;;;;;5011417;28;20217;-69
2022/01/07 00:08:16;;;;;;;25.10;16.23;;;4.50;91.90;;;;;;5014706;28;20204;-69
2022/01/07 00:10:43;;;;;;;25.07;15.97;;;4.40;91.90;;;;;;5010378;28;20239;-70
2022/01/07 00:13:11;;;;;;;22.27;16.00;;;4.40;91.90;;;;;;5012936;28;20284;-69
2022/01/07 00:15:38;;;;;;;23.07;15.83;;;4.30;92.00;;;;;;5010011;28;20197;-69
2022/01/07 00:18:07;;;;;;;19.57;15.03;;;4.30;92.00;;;;;;5014633;28;20243;-69
2022/01/07 00:20:35;;;;;;;21.17;15.17;;;4.30;92.10;;;;;;5012984;28;20220;-69
2022/01/07 00:23:02;;;;;;;22.90;15.90;;;4.20;92.20;;;;;;5013589;28;20633;-69
2022/01/07 00:25:29;;;;;;;21.30;15.20;;;4.20;92.10;;;;;;4996800;28;20596;-69
2022/01/07 00:27:56;;;;;;;23.13;14.93;;;4.20;92.00;;;;;;5029853;28;20204;-70
2022/01/07 00:30:23;;;;;;;22.77;15.20;;;4.10;91.90;;;;;;4993846;28;20548;-70
2022/01/07 00:32:52;;;;;;;21.70;15.03;;;4.10;91.90;;;;;;4994193;28;20204;-69
2022/01/07 00:35:19;;;;;;;23.97;14.83;;;4.10;91.80;;;;;;5010985;28;20554;-69
2022/01/07 00:37:48;;;;;;;19.87;14.57;;;4.00;91.80;;;;;;5014343;28;20204;-69
2022/01/07 00:40:21;;;;;;;22.27;13.57;;;4.00;91.90;;;;;;5014236;28;20533;-69
2022/01/07 00:42:50;;;;;;;22.90;14.53;;;3.90;91.80;;;;;;5014238;28;20204;-69
2022/01/07 00:45:22;;;;;;;21.10;14.17;;;3.90;91.80;;;;;;5014023;28;20287;-69
2022/01/07 00:47:50;;;;;;;20.30;13.90;;;3.90;91.90;;;;;;5014337;28;20248;-69
2022/01/07 00:50:20;;;;;;;25.23;14.93;;;3.80;92.00;;;;;;5010497;28;20239;-69
2022/01/07 00:52:48;;;;;;;22.07;14.43;;;3.90;92.20;;;;;;5013248;28;20215;-69
2022/01/07 00:55:16;;;;;;;21.47;14.33;;;3.80;92.00;;;;;;5036914;28;20246;-69
2022/01/07 00:57:43;;;;;;;23.00;15.77;;;3.80;91.70;;;;;;5022664;28;20231;-69
2022/01/07 01:00:15;;;;;;;20.47;14.20;;;3.80;91.50;;;;;;5057417;28;20306;-69
2022/01/07 01:02:42;;;;;;;20.13;13.97;;;3.80;91.60;;;;;;5053942;28;20211;-69
2022/01/07 01:05:11;;;;;;;21.07;13.50;;;3.70;91.60;;;;;;5057533;28;20213;-69
2022/01/07 01:07:39;;;;;;;22.27;13.73;;;3.70;91.70;;;;;;5057325;28;20213;-70
2022/01/07 01:10:07;;;;;;;20.10;13.73;;;3.70;91.50;;;;;;5039833;28;20661;-70
2022/01/07 01:12:37;;;;;;;20.37;13.50;;;3.70;91.50;;;;;;5034432;28;20281;-70
2022/01/07 01:15:06;;;;;;;20.10;13.13;;;3.70;91.60;;;;;;5054281;28;20208;-69
2022/01/07 01:17:34;;;;;;;17.63;13.10;;;3.70;91.50;;;;;;5056985;28;20550;-69
2022/01/07 01:20:04;;;;;;;19.30;12.50;;;3.70;91.50;;;;;;5040356;28;20198;-69
2022/01/07 01:22:32;;;;;;;18.67;13.27;;;3.60;91.50;;;;;;5054710;28;20210;-69
2022/01/07 01:24:59;;;;;;;19.07;12.87;;;3.60;91.40;;;;;;5057926;28;20227;-69
2022/01/07 01:27:26;;;;;;;20.70;13.53;;;3.60;91.30;;;;;;5054590;28;20210;-69
2022/01/07 01:29:53;;;;;;;19.17;12.93;;;3.50;91.20;;;;;;5039459;28;20241;-69
2022/01/07 01:32:20;;;;;;;18.97;13.20;;;3.50;91.20;;;;;;5056682;28;20211;-69
2022/01/07 01:34:47;;;;;;;23.23;15.03;;;3.50;91.30;;;;;;5056072;28;20206;-69
2022/01/07 01:37:15;;;;;;;20.60;13.73;;;3.40;91.30;;;;;;5039370;28;20653;-69
2022/01/07 01:39:42;;;;;;;19.40;12.57;;;3.40;91.30;;;;;;5056980;28;20537;-69
2022/01/07 01:42:09;;;;;;;18.20;12.03;;;3.40;91.40;;;;;;5038810;28;20221;-69
2022/01/07 01:44:36;;;;;;;17.60;12.97;;;3.40;91.30;;;;;;5054274;28;20222;-69
2022/01/07 01:47:03;;;;;;;20.80;12.80;;;3.30;91.30;;;;;;5055295;28;20211;-69
2022/01/07 01:49:30;;;;;;;18.40;13.67;;;3.30;91.30;;;;;;5038941;28;20216;-69
2022/01/07 01:51:57;;;;;;;19.23;13.07;;;3.30;91.40;;;;;;5038938;28;20285;-70
2022/01/07 01:54:25;;;;;;;19.37;13.17;;;3.30;91.40;;;;;;5055642;28;20246;-69
2022/01/07 01:56:52;;;;;;;19.23;13.30;;;3.30;91.60;;;;;;5021506;28;20626;-69
2022/01/07 01:59:25;;;;;;;18.20;12.90;;;3.20;91.60;;;;;;5039132;28;20215;-70
2022/01/07 02:01:52;;;;;;;18.63;12.67;;;3.20;91.70;;;;;;5038784;28;20211;-70
2022/01/07 02:04:21;;;;;;;17.33;13.40;;;3.20;91.60;;;;;;5039057;28;20256;-69
2022/01/07 02:06:49;;;;;;;23.47;13.80;;;3.20;91.40;;;;;;5056209;28;20203;-69
2022/01/07 02:09:18;;;;;;;17.20;11.87;;;3.20;91.40;;;;;;5036423;28;20205;-69
2022/01/07 02:11:45;;;;;;;18.97;13.03;;;3.20;91.50;;;;;;5051263;28;20204;-69
2022/01/07 02:14:12;;;;;;;22.83;15.10;;;3.20;91.60;;;;;;5054559;28;20230;-69
2022/01/07 02:16:39;;;;;;;21.03;14.93;;;3.20;91.70;;;;;;5055876;28;20203;-70
2022/01/07 02:19:06;;;;;;;22.07;15.03;;;3.10;91.70;;;;;;5054396;28;20207;-69
2022/01/07 02:21:37;;;;;;;23.77;16.17;;;3.10;91.80;;;;;;5055883;28;20207;-69
2022/01/07 02:24:05;;;;;;;26.57;16.63;;;3.10;91.80;;;;;;5038678;28;20643;-69
2022/01/07 02:26:34;;;;;;;20.17;15.23;;;3.10;91.90;;;;;;5016403;28;20219;-69
2022/01/07 02:29:03;;;;;;;20.13;14.47;;;3.10;92.10;;;;;;5036487;28;20198;-69
2022/01/07 02:31:30;;;;;;;22.47;16.20;;;3.10;92.10;;;;;;5021880;28;20253;-69
2022/01/07 02:33:57;;;;;;;23.30;15.33;;;3.10;92.20;;;;;;5053942;28;20236;-69
2022/01/07 02:36:24;;;;;;;25.17;15.90;;;3.10;92.20;;;;;;5033041;28;20635;-69
2022/01/07 02:38:51;;;;;;;20.87;15.13;;;3.10;92.30;;;;;;5018401;28;20218;-69
2022/01/07 02:41:18;;;;;;;22.57;16.20;;;3.00;92.30;;;;;;5055549;28;20645;-69
2022/01/07 02:43:45;;;;;;;22.57;15.00;;;3.00;92.10;;;;;;5054938;28;20211;-70
2022/01/07 02:46:12;;;;;;;22.67;16.40;;;3.00;92.10;;;;;;5053163;28;20215;-69
2022/01/07 02:48:39;;;;;;;24.70;16.37;;;3.00;92.20;;;;;;5038065;28;20214;-69
2022/01/07 02:51:06;;;;;;;24.17;16.77;;;3.00;92.30;;;;;;5055112;28;20675;-69
2022/01/07 02:53:33;;;;;;;24.97;16.07;;;3.00;92.40;;;;;;5055747;28;20214;-69
2022/01/07 02:56:00;;;;;;;24.93;18.00;;;2.90;92.40;;;;;;5055668;28;20234;-69
2022/01/07 02:58:27;;;;;;;20.83;15.47;;;2.90;92.50;;;;;;5054849;28;20211;-69
2022/01/07 03:00:54;;;;;;;26.17;15.83;;;2.90;92.60;;;;;;5055179;28;20538;-69
2022/01/07 03:03:22;;;;;;;23.30;16.17;;;2.90;92.60;;;;;;5055470;28;20213;-69
2022/01/07 03:05:49;;;;;;;22.37;15.00;;;3.00;92.60;;;;;;5037707;28;20542;-69
2022/01/07 03:08:16;;;;;;;37.70;16.60;;;3.00;92.60;;;;;;5037474;28;20206;-69
2022/01/07 03:10:43;;;;;;;23.87;15.97;;;3.00;92.60;;;;;;5052543;28;20624;-69
2022/01/07 03:13:10;;;;;;;23.40;14.97;;;3.00;92.50;;;;;;5003131;28;20215;-69
2022/01/07 03:15:38;;;;;;;24.33;15.90;;;3.00;92.50;;;;;;5037369;28;20256;-69
2022/01/07 03:18:06;;;;;;;23.53;16.00;;;2.90;92.40;;;;;;5037284;28;20210;-70
2022/01/07 03:20:38;;;;;;;25.83;16.83;;;2.90;92.30;;;;;;5054175;28;20207;-69
2022/01/07 03:23:12;;;;;;;22.70;16.60;;;2.90;92.20;;;;;;5054822;28;20277;-69
2022/01/07 03:25:41;;;;;;;19.77;14.90;;;2.90;92.10;;;;;;5053603;28;20246;-69
2022/01/07 03:28:10;;;;;;;20.80;14.27;;;2.80;92.30;;;;;;5037126;28;20214;-69
2022/01/07 03:30:37;;;;;;;22.90;16.20;;;2.80;92.40;;;;;;5054702;28;20736;-69
2022/01/07 03:33:05;;;;;;;21.50;15.27;;;2.90;92.40;;;;;;5037482;28;20631;-70
2022/01/07 03:35:33;;;;;;;22.77;16.07;;;2.80;92.50;;;;;;5050948;28;20203;-70
2022/01/07 03:38:00;;;;;;;22.83;14.87;;;2.90;92.50;;;;;;5036217;28;20681;-69
2022/01/07 03:40:28;;;;;;;24.10;15.73;;;2.90;92.50;;;;;;5054248;28;20550;-69
2022/01/07 03:42:55;;;;;;;21.27;14.57;;;2.90;92.50;;;;;;5052051;28;20203;-69
2022/01/07 03:45:23;;;;;;;21.77;14.43;;;2.80;92.40;;;;;;5054016;28;20228;-69
2022/01/07 03:47:52;;;;;;;20.17;14.67;;;2.80;92.40;;;;;;5054358;28;20222;-69
2022/01/07 03:50:21;;;;;;;23.43;14.90;;;2.80;92.40;;;;;;5052540;28;20214;-69
2022/01/07 03:52:49;;;;;;;20.30;14.30;;;2.80;92.40;;;;;;5046824;28;20199;-69
2022/01/07 03:55:19;;;;;;;20.03;13.87;;;2.80;92.40;;;;;;5051744;28;20234;-69
2022/01/07 03:57:46;;;;;;;21.13;15.10;;;2.80;92.30;;;;;;5036253;28;20198;-69
2022/01/07 04:00:17;;;;;;;20.33;14.30;;;2.80;92.30;;;;;;5054296;28;20204;-69
2022/01/07 04:02:46;;;;;;;19.10;14.77;;;2.80;92.40;;;;;;5052189;28;20206;-69
2022/01/07 04:05:15;;;;;;;21.43;14.73;;;2.80;92.40;;;;;;5036792;28;20701;-69
2022/01/07 04:07:42;;;;;;;22.07;14.37;;;2.80;92.40;;;;;;5036594;28;20210;-69
2022/01/07 04:10:09;;;;;;;21.27;14.67;;;2.80;92.40;;;;;;5036088;28;20210;-69
2022/01/07 04:12:37;;;;;;;20.27;13.80;;;2.70;92.40;;;;;;5036335;28;20218;-69
2022/01/07 04:15:08;;;;;;;24.90;15.33;;;2.70;92.40;;;;;;5036873;28;20211;-69
2022/01/07 04:17:43;;;;;;;21.63;15.10;;;2.70;92.40;;;;;;5051389;28;20591;-69
2022/01/07 04:20:13;;;;;;;22.03;14.37;;;2.70;92.40;;;;;;5054249;28;20202;-69
2022/01/07 04:22:41;;;;;;;19.63;12.87;;;2.70;92.50;;;;;;5036467;28;20206;-69
2022/01/07 04:25:13;;;;;;;23.53;15.03;;;2.70;92.30;;;;;;5034103;28;20214;-69
2022/01/07 04:27:40;;;;;;;19.10;12.90;;;2.60;92.20;;;;;;5018265;28;20210;-69
2022/01/07 04:30:07;;;;;;;20.97;14.20;;;2.60;92.30;;;;;;5054582;28;20199;-69
2022/01/07 04:32:34;;;;;;;19.10;13.00;;;2.60;92.20;;;;;;5055500;28;20533;-69
2022/01/07 04:35:01;;;;;;;17.63;12.97;;;2.60;92.20;;;;;;5040953;28;20194;-69
2022/01/07 04:37:28;;;;;;;19.40;13.63;;;2.60;92.20;;;;;;5023799;28;20221;-69
2022/01/07 04:39:55;;;;;;;19.83;12.50;;;2.60;92.20;;;;;;5055314;28;20652;-69
2022/01/07 04:42:22;;;;;;;18.57;13.20;;;2.50;92.10;;;;;;5057676;28;20256;-69
2022/01/07 04:44:49;;;;;;;22.03;12.97;;;2.50;92.10;;;;;;5058485;28;20644;-69
2022/01/07 04:47:16;;;;;;;16.33;12.20;;;2.50;92.20;;;;;;5040519;28;20211;-69
2022/01/07 04:49:44;;;;;;;17.43;12.23;;;2.40;92.20;;;;;;5040499;28;20210;-69
2022/01/07 04:52:10;;;;;;;20.77;12.77;;;2.40;92.30;;;;;;5023405;28;20245;-69
2022/01/07 04:54:38;;;;;;;18.10;11.53;;;2.40;92.40;;;;;;5057907;28;20561;-69
2022/01/07 04:57:05;;;;;;;19.67;12.77;;;2.40;92.40;;;;;;5056949;28;20537;-69
2022/01/07 04:59:32;;;;;;;16.20;12.60;;;2.40;92.50;;;;;;5040530;28;20215;-69
2022/01/07 05:01:59;;;;;;;14.43;12.17;;;2.40;92.50;;;;;;5039695;28;20613;-69
2022/01/07 05:04:26;;;;;;;20.20;12.60;;;2.40;92.50;;;;;;5040594;28;20648;-69
2022/01/07 05:06:53;;;;;;;16.73;12.07;;;2.40;92.60;;;;;;5057684;28;20305;-69
2022/01/07 05:09:21;;;;;;;17.60;12.23;;;2.40;92.60;;;;;;5058180;28;20203;-69
2022/01/07 05:11:50;;;;;;;19.70;13.20;;;2.50;92.60;;;;;;5024107;28;20249;-69
2022/01/07 05:14:18;;;;;;;17.27;13.10;;;2.50;92.60;;;;;;5053442;28;20233;-69
2022/01/07 05:16:46;;;;;;;17.33;12.70;;;2.50;92.60;;;;;;5057392;28;20291;-69
2022/01/07 05:19:13;;;;;;;17.90;12.73;;;2.50;92.90;;;;;;5040083;28;20196;-69
2022/01/07 05:21:41;;;;;;;16.87;13.27;;;2.50;92.60;;;;;;5057313;28;20207;-69
2022/01/07 05:24:08;;;;;;;18.97;12.07;;;2.50;92.50;;;;;;5036261;28;20233;-69
2022/01/07 05:26:35;;;;;;;18.13;13.03;;;2.50;92.50;;;;;;5039474;28;20208;-69
2022/01/07 05:29:03;;;;;;;19.03;12.83;;;2.50;92.30;;;;;;5039568;28;20202;-69
2022/01/07 05:31:30;;;;;;;18.50;13.63;;;2.50;92.30;;;;;;5039565;28;20210;-69
2022/01/07 05:33:57;;;;;;;16.30;12.10;;;2.40;92.40;;;;;;5038889;28;20212;-69
2022/01/07 05:36:24;;;;;;;22.70;12.60;;;2.40;92.40;;;;;;5039453;28;20206;-69
2022/01/07 05:38:52;;;;;;;18.47;12.60;;;2.40;92.50;;;;;;5023302;28;20246;-69
2022/01/07 05:41:19;;;;;;;16.50;12.57;;;2.40;92.50;;;;;;5056608;28;20207;-69
2022/01/07 05:43:46;;;;;;;19.23;12.97;;;2.40;92.50;;;;;;5039168;28;20202;-70
2022/01/07 05:46:15;;;;;;;18.53;12.70;;;2.40;92.50;;;;;;5056283;28;20225;-69
2022/01/07 05:48:46;;;;;;;18.33;12.37;;;2.30;92.40;;;;;;5055661;28;20278;-69
2022/01/07 05:51:14;;;;;;;16.63;12.53;;;2.30;92.50;;;;;;5035943;28;20543;-69
2022/01/07 05:53:41;;;;;;;18.00;12.77;;;2.30;92.50;;;;;;5054276;28;20211;-69
2022/01/07 05:56:08;;;;;;;15.60;11.93;;;2.30;92.50;;;;;;4995570;28;1262117;-69
2022/01/07 05:58:36;;;;;;;22.13;12.97;;;2.20;92.50;;;;;;5041066;28;20537;-69
2022/01/07 06:01:04;;;;;;;18.43;12.50;;;2.20;92.60;;;;;;5056852;28;20208;-69
2022/01/07 06:03:33;;;;;;;17.17;12.90;;;2.20;92.50;;;;;;5058225;28;20209;-69
2022/01/07 06:06:00;;;;;;;17.60;11.90;;;2.20;92.40;;;;;;5058601;28;20578;-69
2022/01/07 06:08:27;;;;;;;16.17;12.27;;;2.20;92.40;;;;;;5054550;28;20202;-69
2022/01/07 06:10:54;;;;;;;17.73;11.60;;;2.10;92.30;;;;;;5055858;28;20222;-69
2022/01/07 06:13:21;;;;;;;20.87;12.40;;;2.10;92.30;;;;;;5056582;28;20202;-69
2022/01/07 06:15:49;;;;;;;18.63;12.00;;;2.10;92.40;;;;;;5056129;28;20213;-69
2022/01/07 06:18:16;;;;;;;18.87;12.10;;;2.10;92.50;;;;;;5038606;28;20206;-69
2022/01/07 06:20:43;;;;;;;16.90;11.43;;;2.10;92.60;;;;;;5038480;28;20333;-69
2022/01/07 06:23:10;;;;;;;17.23;12.07;;;2.10;92.70;;;;;;5055815;28;20194;-69
2022/01/07 06:25:37;;;;;;;15.87;11.97;;;2.10;92.70;;;;;;5038790;28;20202;-69
2022/01/07 06:28:05;;;;;;;17.83;12.10;;;2.10;92.70;;;;;;5056735;28;20199;-69
2022/01/07 06:30:33;;;;;;;18.50;12.60;;;2.10;92.70;;;;;;5056080;28;20210;-69
2022/01/07 06:33:00;;;;;;;19.03;12.33;;;2.10;92.60;;;;;;5056725;28;20207;-69
2022/01/07 06:35:27;;;;;;;17.83;12.83;;;2.10;92.90;;;;;;5056186;28;20529;-69
2022/01/07 06:37:54;;;;;;;17.33;11.37;;;2.10;92.90;;;;;;5039032;28;20217;-69
2022/01/07 06:40:21;;;;;;;17.43;11.90;;;2.10;92.60;;;;;;5035353;28;20557;-69
2022/01/07 06:42:48;;;;;;;15.07;11.10;;;2.10;92.60;;;;;;5055887;28;20206;-69
2022/01/07 06:45:15;;;;;;;17.47;11.73;;;2.10;92.70;;;;;;5038378;28;20254;-69
2022/01/07 06:47:43;;;;;;;17.57;12.03;;;2.10;92.70;;;;;;5055784;28;20271;-69
2022/01/07 06:50:10;;;;;;;14.90;11.67;;;2.10;92.70;;;;;;5055939;28;20221;-69
2022/01/07 06:52:38;;;;;;;15.53;11.27;;;2.10;92.60;;;;;;5054615;28;20250;-70
2022/01/07 06:55:05;;;;;;;15.53;11.77;;;2.00;92.60;;;;;;5029616;28;20330;-69
2022/01/07 06:57:32;;;;;;;15.20;11.50;;;2.10;92.50;;;;;;5028599;28;20203;-70
2022/01/07 06:59:59;;;;;;;17.10;12.07;;;2.00;92.40;;;;;;5016555;28;20204;-69
2022/01/07 07:02:26;;;;;;;24.17;14.73;;;2.00;92.50;;;;;;5018325;28;20196;-69
2022/01/07 07:04:54;;;;;;;22.40;15.20;;;2.00;92.50;;;;;;5019894;28;21163;-69
2022/01/07 07:07:21;;;;;;;21.50;13.97;;;2.00;92.50;;;;;;5019098;28;20215;-69
2022/01/07 07:09:48;;;;;;;24.13;14.93;;;2.00;92.60;;;;;;5021686;28;20553;-69
2022/01/07 07:12:15;;;;;;;23.10;15.53;;;2.10;92.60;;;;;;5030851;28;20660;-69
2022/01/07 07:14:42;;;;;;;22.43;14.87;;;2.10;92.50;;;;;;5017712;28;20196;-70
2022/01/07 07:17:12;;;;;;;18.07;13.03;;;2.10;92.40;;;;;;5027428;28;20203;-69
2022/01/07 07:19:39;;;;;;;21.37;14.17;;;2.10;92.50;;;;;;5039949;28;20208;-69
2022/01/07 07:22:06;;;;;;;17.13;11.30;;;2.20;92.10;;;;;;4986318;28;20211;-70
2022/01/07 07:24:33;;;;;;;16.80;11.27;;;2.20;92.10;;;;;;5022103;28;20211;-69
2022/01/07 07:27:01;;;;;;;18.23;11.57;;;2.20;92.10;;;;;;5019287;28;20225;-69
2022/01/07 07:29:28;;;;;;;16.93;12.07;;;2.20;91.90;;;;;;5026238;28;20210;-69
2022/01/07 07:31:57;;;;;;;17.97;11.73;;;2.30;91.90;;;;;;5015110;28;20223;-69
2022/01/07 07:34:58;;;;;;;15.70;11.43;;;2.30;92.00;;;;;;5018626;28;20262;-69
2022/01/07 07:37:20;;;;;;;16.67;12.40;;;2.40;92.10;;;;;;5019551;28;20632;-69
2022/01/07 07:39:47;;;;;;;16.33;11.17;;;2.50;92.10;;;;;;5014050;28;20640;-69
2022/01/07 07:42:14;;;;;;;16.20;10.60;;;2.50;92.00;;;;;;5019552;28;20539;-69
2022/01/07 07:44:48;;;;;;;14.70;11.67;;;2.50;91.90;;;;;;5006673;28;20609;-69
2022/01/07 07:47:15;;;;;;;16.70;12.47;;;2.60;91.90;;;;;;5023594;28;20570;-69
2022/01/07 07:49:42;;;;;;;15.80;11.53;;;2.60;91.90;;;;;;5025091;28;20212;-69
2022/01/07 07:52:09;;;;;;;14.30;10.20;;;2.70;91.90;;;;;;5024029;28;20211;-69
2022/01/07 07:54:36;;;;;;;16.40;10.43;;;2.80;91.90;;;;;;5029439;28;20235;-70
2022/01/07 07:57:04;;;;;;;14.17;10.10;;;2.90;91.90;;;;;;5038669;28;20199;-69
2022/01/07 07:59:31;;;;;;;13.10;9.70;;;2.90;91.80;;;;;;5037474;28;20191;-69
2022/01/07 08:01:58;;;;;;;17.13;12.17;;;3.00;91.70;;;;;;5034439;28;20685;-69
2022/01/07 08:04:25;;;;;;;20.57;14.63;;;3.10;91.60;;;;;;5055383;28;20221;-69
2022/01/07 08:06:52;;;;;;;20.10;14.50;;;3.20;91.50;;;;;;5037821;28;20212;-69
2022/01/07 08:09:20;;;;;;;18.63;12.87;;;3.30;91.70;;;;;;5036675;28;20202;-70
2022/01/07 08:11:53;;;;;;;21.07;15.73;;;3.40;91.30;;;;;;5052885;28;20325;-69
2022/01/07 08:17:17;;;;;;;25.60;17.47;;;3.50;91.00;;;;;;5000350;28;20259;-69
2022/01/07 08:19:46;;;;;;;18.83;12.87;;;3.60;90.80;;;;;;5036501;28;20234;-69
2022/01/07 08:22:13;;;;;;;11.97;8.63;;;3.70;90.70;;;;;;5054210;28;20202;-69
2022/01/07 08:24:41;;;;;;;14.43;9.90;;;3.70;90.50;;;;;;5039352;28;20214;-69
2022/01/07 08:27:08;;;;;;;15.10;8.97;;;3.80;89.00;;;;;;5058024;28;20214;-69
2022/01/07 08:29:55;;;;;;;12.50;8.93;;;3.90;87.30;;;;;;5043042;28;20652;-69
2022/01/07 08:35:08;;;;;;;13.27;9.97;;;4.00;87.70;;;;;;5034505;28;20277;-69
2022/01/07 08:37:35;;;;;;;13.50;9.43;;;4.10;88.20;;;;;;5054434;28;20198;-69
2022/01/07 08:40:03;;;;;;;14.53;10.30;;;4.10;88.50;;;;;;5054175;28;20231;-69
2022/01/07 08:42:30;;;;;;;14.07;10.00;;;4.20;88.60;;;;;;5020616;28;20209;-69
2022/01/07 08:44:57;;;;;;;12.03;8.83;;;4.30;88.50;;;;;;5037220;28;20212;-69
2022/01/07 08:47:25;;;;;;;11.40;8.27;;;4.40;88.40;;;;;;5061060;28;20204;-69
2022/01/07 08:49:53;;;;;;;12.37;8.57;;;4.50;88.30;;;;;;5062651;28;20234;-69
2022/01/07 08:52:21;;;;;;;12.60;9.20;;;4.60;88.00;;;;;;5036555;28;20623;-69
2022/01/07 08:54:50;;;;;;;12.70;9.13;;;4.60;87.80;;;;;;5054442;28;20241;-69
2022/01/07 08:57:20;;;;;;;11.93;9.80;;;4.70;87.60;;;;;;5052590;28;20726;-69
2022/01/07 08:59:49;;;;;;;10.40;8.07;;;4.80;87.60;;;;;;5038568;28;20531;-69
2022/01/07 09:02:16;;;;;;;10.80;8.00;;;4.90;87.50;;;;;;5022539;28;20215;-69
2022/01/07 09:04:43;;;;;;;11.87;8.10;;;4.90;87.20;;;;;;5040724;28;20230;-69
2022/01/07 09:07:11;;;;;;;12.77;8.03;;;5.00;87.10;;;;;;5040691;28;20216;-69
2022/01/07 09:09:39;;;;;;;14.83;9.97;;;5.10;86.80;;;;;;5052885;28;20212;-69
2022/01/07 09:12:08;;;;;;;11.93;9.27;;;5.20;86.30;;;;;;5053617;28;20233;-70
2022/01/07 09:14:35;;;;;;;9.67;7.33;;;5.30;85.50;;;;;;5052935;28;20204;-69
2022/01/07 09:17:03;;;;;;;12.87;7.10;;;5.30;85.40;;;;;;5054361;28;20509;-69
2022/01/07 09:19:30;;;;;;;10.73;7.13;;;5.40;82.90;;;;;;5059989;28;20585;-69
2022/01/07 09:21:57;;;;;;;12.57;7.83;;;5.40;83.30;;;;;;5058750;28;20656;-68
2022/01/07 09:24:29;;;;;;;13.93;8.63;;;5.40;83.70;;;;;;5044631;28;20740;-68
2022/01/07 09:26:57;;;;;;;10.77;7.80;;;5.50;83.80;;;;;;5059003;28;20240;-69
2022/01/07 09:29:26;;;;;;;9.80;6.93;;;5.60;83.90;;;;;;5053597;28;20254;-69
2022/01/07 09:31:55;;;;;;;8.47;6.30;;;5.70;83.70;;;;;;5039793;28;20233;-69
2022/01/07 09:34:23;;;;;;;7.03;5.00;;;5.80;83.30;;;;;;5057049;28;20205;-69
2022/01/07 09:36:55;;;;;;;7.87;4.70;;;5.90;82.80;;;;;;5036954;28;20249;-69
2022/01/07 09:39:22;;;;;;;7.70;5.50;;;5.90;81.30;;;;;;5039165;28;20213;-69
2022/01/07 09:41:49;;;;;;;12.13;5.67;;;6.00;80.60;;;;;;5055637;28;20219;-69
2022/01/07 09:44:17;;;;;;;9.40;5.40;;;6.10;80.00;;;;;;5057429;28;20216;-69
2022/01/07 09:46:44;;;;;;;10.30;5.73;;;6.10;79.10;;;;;;5056727;28;20209;-69
2022/01/07 09:49:11;;;;;;;5.37;4.03;;;6.20;78.80;;;;;;5039644;28;20663;-69
2022/01/07 09:51:41;;;;;;;6.73;4.40;;;6.30;78.60;;;;;;5057865;28;20528;-69
2022/01/07 09:54:08;;;;;;;5.83;3.90;;;6.30;78.00;;;;;;5038717;28;20319;-69
2022/01/07 09:56:37;;;;;;;5.57;4.00;;;6.40;75.40;;;;;;5054116;28;20193;-69
2022/01/07 09:59:06;;;;;;;5.60;3.60;;;6.40;73.20;;;;;;5052957;28;20223;-69
2022/01/07 10:02:03;;;;;;;4.67;3.53;;;6.50;73.00;;;;;;5051737;28;20524;-69
2022/01/07 10:04:40;;;;;;;4.53;3.90;;;6.50;72.70;;;;;;5054530;28;20205;-69
2022/01/07 10:07:11;;;;;;;5.07;3.43;;;6.60;72.40;;;;;;5055944;28;20210;-69
2022/01/07 10:09:40;;;;;;;4.23;3.03;;;6.60;70.60;;;;;;5041816;28;20201;-69
2022/01/07 10:12:08;;;;;;;4.27;3.50;;;6.60;70.10;;;;;;5056932;28;20744;-69
2022/01/07 10:14:38;;;;;;;5.33;3.77;;;6.60;69.60;;;;;;5056299;28;20191;-69
2022/01/07 10:17:05;;;;;;;4.13;3.10;;;6.70;69.20;;;;;;5039749;28;20207;-69
2022/01/07 10:19:34;;;;;;;5.03;3.87;;;6.70;67.50;;;;;;5019261;28;20535;-70
2022/01/07 10:22:14;;;;;;;4.03;3.53;;;6.70;66.70;;;;;;5019039;28;20256;-70
2022/01/07 10:25:02;;;;;;;4.27;3.33;;;6.70;66.10;;;;;;5021279;28;20221;-69
2022/01/07 10:27:39;;;;;;;5.23;3.33;;;6.70;65.70;;;;;;5038256;28;20198;-70
2022/01/07 10:30:15;;;;;;;4.57;3.20;;;6.70;65.70;;;;;;5014841;28;20214;-70
2022/01/07 10:32:43;;;;;;;4.70;3.30;;;6.70;64.90;;;;;;5022813;28;20767;-69
2022/01/07 10:35:15;;;;;;;3.60;3.13;;;6.80;63.80;;;;;;5025837;28;20631;-69
2022/01/07 10:37:51;;;;;;;5.13;3.10;;;6.80;65.50;;;;;;5020856;28;20210;-70
2022/01/07 10:40:26;;;;;;;4.57;3.37;;;6.80;64.60;;;;;;5055073;28;20544;-69
2022/01/07 10:43:14;;;;;;;5.53;3.30;;;6.80;65.60;;;;;;5056215;28;20238;-69
2022/01/07 10:45:53;;;;;;;9.70;3.43;;;6.80;66.40;;;;;;5024940;28;20561;-69
2022/01/07 10:48:24;;;;;;;4.50;3.40;;;6.90;65.40;;;;;;5056633;28;20291;-69
2022/01/07 10:50:52;;;;;;;5.97;3.50;;;6.80;65.90;;;;;;5042839;28;20201;-70
2022/01/07 10:53:24;;;;;;;4.53;3.23;;;6.80;65.70;;;;;;5055228;28;20617;-70
2022/01/07 10:56:12;;;;;;;4.40;3.30;;;6.80;65.20;;;;;;5037833;28;20549;-70
2022/01/07 10:59:01;;;;;;;5.77;3.30;;;6.90;64.80;;;;;;5038430;28;20501;-70
2022/01/07 11:01:40;;;;;;;4.47;2.97;;;6.80;65.60;;;;;;5058941;28;20212;-70
2022/01/07 11:04:10;;;;;;;5.20;3.33;;;6.90;62.90;;;;;;5057309;28;20198;-70
2022/01/07 11:06:39;;;;;;;5.13;2.73;;;6.90;64.10;;;;;;5060273;28;20211;-70
2022/01/07 11:09:09;;;;;;;3.77;2.80;;;6.90;64.10;;;;;;5053001;28;20198;-70
2022/01/07 11:11:48;;;;;;;3.90;2.50;;;6.90;64.90;;;;;;5053544;28;20201;-70
2022/01/07 11:14:25;;;;;;;4.37;2.97;;;7.00;64.10;;;;;;5035802;28;20607;-70
2022/01/07 11:16:57;;;;;;;5.80;3.20;;;7.00;63.20;;;;;;5034886;28;20205;-70
2022/01/07 11:19:37;;;;;;;6.83;2.83;;;7.10;63.30;;;;;;5055329;28;20202;-70
2022/01/07 11:22:11;;;;;;;11.73;4.17;;;7.10;64.10;;;;;;5057767;28;20229;-70
2022/01/07 11:24:42;;;;;;;5.27;2.87;;;7.20;64.30;;;;;;5058993;28;20213;-70
2022/01/07 11:27:16;;;;;;;4.63;2.87;;;7.30;64.60;;;;;;5040309;28;20210;-70
2022/01/07 11:30:12;;;;;;;4.70;2.90;;;7.30;63.40;;;;;;5054350;28;20541;-70
2022/01/07 11:32:44;;;;;;;4.13;2.97;;;7.40;63.10;;;;;;5050758;28;20665;-70
2022/01/07 11:35:17;;;;;;;4.53;3.47;;;7.50;63.00;;;;;;5022880;28;20252;-70
2022/01/07 11:37:53;;;;;;;5.10;3.23;;;7.60;62.80;;;;;;5054785;28;20668;-70
2022/01/07 11:40:32;;;;;;;6.57;3.00;;;7.70;63.80;;;;;;5052036;28;20756;-70
2022/01/07 11:43:05;;;;;;;6.80;3.40;;;7.70;61.00;;;;;;5037241;28;20213;-70
2022/01/07 11:45:35;;;;;;;5.10;2.77;;;7.70;61.80;;;;;;5052494;28;20237;-70
2022/01/07 11:48:15;;;;;;;4.23;2.80;;;7.80;62.80;;;;;;5035340;28;20213;-70
2022/01/07 11:50:46;;;;;;;3.93;2.83;;;7.80;61.30;;;;;;5045786;28;20670;-69
2022/01/07 11:53:13;;;;;;;4.73;2.87;;;7.90;62.50;;;;;;5052229;28;20229;-70
2022/01/07 11:55:41;;;;;;;4.60;3.10;;;7.90;63.00;;;;;;5034591;28;20242;-69
2022/01/07 11:58:11;;;;;;;4.30;2.50;;;8.00;62.30;;;;;;5036773;28;20209;-69
2022/01/07 12:01:01;;;;;;;6.50;3.57;;;8.10;62.90;;;;;;5030279;28;20401;-69
2022/01/07 12:03:49;;;;;;;4.77;2.73;;;8.10;63.00;;;;;;5041727;28;20221;-69
2022/01/07 12:06:24;;;;;;;7.07;2.63;;;8.20;62.00;;;;;;5050484;28;20214;-69
2022/01/07 12:09:09;;;;;;;4.33;3.23;;;8.30;63.30;;;;;;5052323;28;20213;-69
2022/01/07 12:11:37;;;;;;;5.10;2.37;;;8.30;63.30;;;;;;5027415;28;20205;-70
2022/01/07 12:14:10;;;;;;;5.33;3.50;;;8.40;62.00;;;;;;5054502;28;20222;-69
2022/01/07 12:16:37;;;;;;;3.10;2.60;;;8.40;61.80;;;;;;5046093;28;20201;-69
2022/01/07 12:19:21;;;;;;;3.77;3.10;;;8.40;62.10;;;;;;5018167;28;20225;-69
2022/01/07 12:21:54;;;;;;;5.53;3.00;;;8.30;61.20;;;;;;5051774;28;20202;-69
2022/01/07 12:24:22;;;;;;;4.73;3.23;;;8.30;61.80;;;;;;5030627;28;20506;-69
2022/01/07 12:27:07;;;;;;;3.77;2.37;;;8.30;62.00;;;;;;5034033;28;20216;-70
2022/01/07 12:29:38;;;;;;;3.63;2.80;;;8.30;61.40;;;;;;5036387;28;20221;-69
2022/01/07 12:32:07;;;;;;;7.53;3.00;;;8.30;62.70;;;;;;5050854;28;20216;-69
2022/01/07 12:34:37;;;;;;;4.90;2.63;;;8.30;64.00;;;;;;5018975;28;20210;-69
2022/01/07 12:37:10;;;;;;;3.87;2.90;;;8.30;63.30;;;;;;5033755;28;20554;-69
2022/01/07 12:39:40;;;;;;;5.70;3.83;;;8.30;63.70;;;;;;5051315;28;20204;-69
2022/01/07 12:42:10;;;;;;;5.23;2.97;;;8.30;62.40;;;;;;5034868;28;20263;-69
2022/01/07 12:44:38;;;;;;;4.53;2.77;;;8.30;61.80;;;;;;5035888;28;20300;-69
2022/01/07 12:47:07;;;;;;;7.20;3.27;;;8.30;62.60;;;;;;5031803;28;20701;-69
2022/01/07 12:49:43;;;;;;;5.07;2.83;;;8.30;61.10;;;;;;5052404;28;20220;-69
2022/01/07 12:52:19;;;;;;;3.67;2.70;;;8.30;61.10;;;;;;5053691;28;20204;-69
2022/01/07 12:54:59;;;;;;;5.23;3.20;;;8.30;60.80;;;;;;5035495;28;20242;-68
2022/01/07 12:58:02;;;;;;;3.10;2.77;;;8.20;61.60;;;;;;5020598;28;20217;-69
2022/01/07 13:00:39;;;;;;;6.10;3.40;;;8.20;62.70;;;;;;5032157;28;20288;-69